Time;durP1;ratioP1;P1;durP2;ratioP2;P2;SDS_P1;SDS_P2;PMS_P1;PMS_P2;Temp;Humidity;BMP_temperature;BMP_pressure;BME280_temperature;BME280_humidity;BME280_pressure;Samples;Min_cycle;Max_cycle;Signal;HPM_P1;HPM_P2
2023/05/28 00:03:23;;;;;;;8.35;2.25;;;;;;;;;;13005502;19;20014;-65
2023/05/28 00:07:42;;;;;;;5.35;2.00;;;;;;;;;;13004309;19;20006;-64
2023/05/28 00:12:01;;;;;;;4.68;1.90;;;;;;;;;;13004547;19;20407;-64
2023/05/28 00:16:19;;;;;;;2.45;1.52;;;;;;;;;;13004503;19;20059;-65
2023/05/28 00:20:38;;;;;;;3.75;2.00;;;;;;;;;;13003652;19;20053;-64
2023/05/28 00:24:57;;;;;;;5.68;2.00;;;;;;;;;;13004358;19;20013;-64
2023/05/28 00:29:17;;;;;;;4.63;1.75;;;;;;;;;;13004207;19;20014;-66
2023/05/28 00:33:35;;;;;;;3.70;1.90;;;;;;;;;;13003705;19;20014;-63
2023/05/28 00:37:53;;;;;;;2.83;2.05;;;;;;;;;;13001150;19;20017;-64
2023/05/28 00:42:12;;;;;;;6.20;2.28;;;;;;;;;;13003373;19;20033;-64
2023/05/28 00:46:30;;;;;;;4.55;1.60;;;;;;;;;;13002203;19;20345;-63
2023/05/28 00:50:49;;;;;;;3.67;1.88;;;;;;;;;;13001609;19;20010;-64
2023/05/28 00:55:15;;;;;;;3.05;1.30;;;;;;;;;;13000197;19;20021;-64
2023/05/28 00:59:34;;;;;;;2.70;1.77;;;;;;;;;;13002405;19;20364;-63
2023/05/28 01:03:51;;;;;;;2.78;1.52;;;;;;;;;;13001615;19;20094;-65
2023/05/28 01:08:09;;;;;;;8.85;1.45;;;;;;;;;;13000018;19;20026;-63
2023/05/28 01:12:28;;;;;;;2.47;1.10;;;;;;;;;;12999224;19;20007;-63
2023/05/28 01:16:48;;;;;;;4.32;1.40;;;;;;;;;;13000872;19;20026;-63
2023/05/28 01:21:08;;;;;;;6.07;1.10;;;;;;;;;;12999526;19;20111;-63
2023/05/28 01:25:26;;;;;;;3.95;1.52;;;;;;;;;;13000304;19;22504;-64
2023/05/28 01:29:45;;;;;;;2.67;1.40;;;;;;;;;;13000067;19;20006;-63
2023/05/28 01:34:02;;;;;;;2.53;1.38;;;;;;;;;;12999230;19;20012;-63
2023/05/28 01:38:22;;;;;;;1.45;1.00;;;;;;;;;;12999334;19;20034;-63
2023/05/28 01:42:40;;;;;;;2.80;1.00;;;;;;;;;;12997403;19;20017;-63
2023/05/28 01:46:59;;;;;;;2.05;1.50;;;;;;;;;;13001158;19;20025;-63
2023/05/28 01:51:23;;;;;;;2.33;1.20;;;;;;;;;;13012010;19;20009;-63
2023/05/28 01:55:40;;;;;;;2.60;1.30;;;;;;;;;;13012131;19;20381;-63
2023/05/28 01:59:59;;;;;;;2.25;1.15;;;;;;;;;;13010451;19;20018;-64
2023/05/28 02:04:17;;;;;;;1.50;1.00;;;;;;;;;;13010780;19;20010;-64
2023/05/28 02:08:35;;;;;;;1.88;1.00;;;;;;;;;;13010786;19;20339;-63
2023/05/28 02:12:53;;;;;;;4.90;1.20;;;;;;;;;;13011442;19;20461;-66
2023/05/28 02:17:12;;;;;;;3.20;1.35;;;;;;;;;;13009995;19;20043;-64
2023/05/28 02:21:30;;;;;;;3.28;1.15;;;;;;;;;;13009335;19;20006;-64
2023/05/28 02:25:48;;;;;;;;;;;;;;;;;;13010323;19;20029;-63
2023/05/28 02:30:06;;;;;;;1.83;1.13;;;;;;;;;;13009264;19;19922;-64
2023/05/28 02:34:25;;;;;;;2.08;1.23;;;;;;;;;;13010135;19;20010;-68
2023/05/28 02:38:43;;;;;;;2.95;1.15;;;;;;;;;;13009122;19;20021;-64
2023/05/28 02:43:01;;;;;;;;;;;;;;;;;;13008646;19;20017;-63
2023/05/28 02:47:19;;;;;;;2.08;1.20;;;;;;;;;;13008440;19;20345;-63
2023/05/28 02:51:37;;;;;;;2.53;1.20;;;;;;;;;;13008388;19;20003;-63
2023/05/28 02:55:56;;;;;;;1.52;1.02;;;;;;;;;;13008107;19;20006;-63
2023/05/28 03:00:14;;;;;;;5.32;0.98;;;;;;;;;;13005487;19;20006;-62
2023/05/28 03:04:32;;;;;;;;;;;;;;;;;;13008443;19;20014;-63
2023/05/28 03:08:50;;;;;;;1.85;1.00;;;;;;;;;;13007579;19;20242;-65
2023/05/28 03:13:08;;;;;;;2.03;1.15;;;;;;;;;;13006455;19;19999;-65
2023/05/28 03:17:26;;;;;;;2.60;1.15;;;;;;;;;;13007035;19;20018;-63
2023/05/28 03:21:45;;;;;;;1.65;0.90;;;;;;;;;;13005957;19;20011;-64
2023/05/28 03:26:02;;;;;;;1.75;1.00;;;;;;;;;;13006048;19;20025;-64
2023/05/28 03:30:21;;;;;;;3.92;1.58;;;;;;;;;;13006441;19;20006;-65
2023/05/28 03:34:40;;;;;;;6.20;1.25;;;;;;;;;;13006969;19;20018;-65
2023/05/28 03:38:58;;;;;;;2.80;1.02;;;;;;;;;;13005527;19;20033;-64
2023/05/28 03:43:17;;;;;;;2.92;1.05;;;;;;;;;;13005288;19;20477;-65
2023/05/28 03:47:35;;;;;;;4.32;1.10;;;;;;;;;;13005418;19;20037;-65
2023/05/28 03:51:54;;;;;;;3.33;1.20;;;;;;;;;;13005071;19;20399;-64
2023/05/28 03:56:12;;;;;;;1.75;0.90;;;;;;;;;;13004432;19;20370;-64
2023/05/28 04:00:29;;;;;;;3.42;1.17;;;;;;;;;;13004124;19;20044;-64
2023/05/28 04:04:48;;;;;;;1.50;1.00;;;;;;;;;;13004704;19;20006;-66
2023/05/28 04:09:07;;;;;;;0.80;0.65;;;;;;;;;;13003800;19;20010;-65
2023/05/28 04:13:25;;;;;;;6.47;1.45;;;;;;;;;;13001309;19;20017;-64
2023/05/28 04:17:43;;;;;;;6.05;1.15;;;;;;;;;;13004110;19;19998;-64
2023/05/28 04:22:02;;;;;;;2.90;0.93;;;;;;;;;;13002696;19;20433;-63
2023/05/28 04:26:22;;;;;;;0.90;0.70;;;;;;;;;;13003201;19;20354;-64
2023/05/28 04:30:39;;;;;;;4.15;1.20;;;;;;;;;;13003569;19;20025;-64
2023/05/28 04:34:57;;;;;;;2.80;1.10;;;;;;;;;;13003064;19;20105;-64
2023/05/28 04:39:15;;;;;;;2.05;0.98;;;;;;;;;;13001838;19;20361;-63
2023/05/28 04:43:35;;;;;;;2.53;0.90;;;;;;;;;;13001682;19;20319;-64
2023/05/28 04:47:53;;;;;;;3.03;1.02;;;;;;;;;;13002518;19;20018;-63
2023/05/28 04:52:11;;;;;;;2.97;1.35;;;;;;;;;;13001370;19;20033;-64
2023/05/28 04:56:29;;;;;;;1.67;1.10;;;;;;;;;;13002188;19;20014;-64
2023/05/28 05:00:47;;;;;;;1.98;1.45;;;;;;;;;;13001332;19;20011;-64
2023/05/28 05:05:05;;;;;;;;;;;;;;;;;;13001687;19;20025;-63
2023/05/28 05:09:23;;;;;;;1.77;0.90;;;;;;;;;;13001930;19;19934;-64
2023/05/28 05:13:41;;;;;;;2.05;1.05;;;;;;;;;;13000871;19;20096;-64
2023/05/28 05:17:59;;;;;;;3.22;1.40;;;;;;;;;;13000677;19;20243;-64
2023/05/28 05:22:19;;;;;;;4.88;1.15;;;;;;;;;;13002272;19;20011;-65
2023/05/28 05:26:37;;;;;;;2.47;0.98;;;;;;;;;;13013221;19;20018;-64
2023/05/28 05:30:55;;;;;;;2.38;1.00;;;;;;;;;;13013526;19;20346;-64
2023/05/28 05:35:14;;;;;;;3.38;1.60;;;;;;;;;;13011760;19;20011;-64
2023/05/28 05:39:32;;;;;;;1.70;0.80;;;;;;;;;;13011981;19;20476;-64
2023/05/28 05:43:50;;;;;;;3.88;0.98;;;;;;;;;;13011810;19;20015;-64
2023/05/28 05:48:08;;;;;;;3.65;0.90;;;;;;;;;;13011753;19;20375;-66
2023/05/28 05:52:26;;;;;;;8.00;0.80;;;;;;;;;;13011958;19;20022;-66
2023/05/28 05:56:45;;;;;;;1.08;0.60;;;;;;;;;;13011271;19;20007;-64
2023/05/28 06:01:04;;;;;;;1.67;1.23;;;;;;;;;;13010179;19;20018;-65
2023/05/28 06:05:23;;;;;;;4.10;1.00;;;;;;;;;;13011125;19;20459;-64
2023/05/28 06:09:40;;;;;;;0.77;0.70;;;;;;;;;;13011151;19;20401;-64
2023/05/28 06:13:58;;;;;;;1.30;0.95;;;;;;;;;;13010689;19;20492;-65
2023/05/28 06:18:16;;;;;;;0.98;0.60;;;;;;;;;;13009919;19;20011;-64
2023/05/28 06:22:35;;;;;;;1.33;0.95;;;;;;;;;;13010345;19;20446;-64
2023/05/28 06:26:53;;;;;;;3.70;0.65;;;;;;;;;;13009878;19;19999;-65
2023/05/28 06:31:11;;;;;;;3.42;1.15;;;;;;;;;;13009157;19;20003;-65
2023/05/28 06:35:29;;;;;;;2.90;1.10;;;;;;;;;;13007387;19;20038;-64
2023/05/28 06:39:47;;;;;;;;;;;;;;;;;;13010232;19;20470;-64
2023/05/28 06:44:06;;;;;;;2.00;0.90;;;;;;;;;;13007676;19;19934;-64
2023/05/28 06:48:23;;;;;;;0.98;0.68;;;;;;;;;;13006783;19;20015;-65
2023/05/28 06:52:42;;;;;;;4.00;0.63;;;;;;;;;;13009346;19;20010;-66
2023/05/28 06:56:59;;;;;;;;;;;;;;;;;;13009795;19;20002;-65
2023/05/28 07:01:17;;;;;;;0.67;0.47;;;;;;;;;;13006397;19;19950;-67
2023/05/28 07:05:38;;;;;;;3.22;0.85;;;;;;;;;;13008099;19;20235;-66
2023/05/28 07:09:56;;;;;;;3.05;0.70;;;;;;;;;;13007678;19;20006;-66
2023/05/28 07:14:15;;;;;;;1.50;0.82;;;;;;;;;;13007318;19;20021;-65
2023/05/28 07:18:34;;;;;;;1.08;0.60;;;;;;;;;;13006952;19;20025;-65
2023/05/28 07:22:51;;;;;;;1.17;0.70;;;;;;;;;;13005606;19;20014;-65
2023/05/28 07:27:10;;;;;;;2.78;0.80;;;;;;;;;;13005970;19;20025;-64
2023/05/28 07:31:31;;;;;;;3.17;0.80;;;;;;;;;;13006324;19;20015;-65
2023/05/28 07:35:49;;;;;;;1.40;0.77;;;;;;;;;;13004724;19;20006;-67
2023/05/28 07:40:10;;;;;;;3.13;1.58;;;;;;;;;;13002380;19;20014;-65
2023/05/28 07:44:28;;;;;;;4.15;0.88;;;;;;;;;;13004395;19;20013;-67
2023/05/28 07:48:45;;;;;;;1.50;1.00;;;;;;;;;;13005157;19;20029;-65
2023/05/28 07:53:03;;;;;;;1.13;0.65;;;;;;;;;;13004057;19;20018;-65
2023/05/28 07:57:25;;;;;;;2.50;0.98;;;;;;;;;;13004285;19;20022;-65
2023/05/28 08:01:43;;;;;;;0.68;0.60;;;;;;;;;;13003677;19;20010;-62
2023/05/28 08:06:01;;;;;;;;;;;;;;;;;;13004789;19;20434;-62
2023/05/28 08:10:19;;;;;;;3.08;0.90;;;;;;;;;;13004221;19;19933;-62
2023/05/28 08:14:37;;;;;;;3.90;0.60;;;;;;;;;;13004300;19;20338;-62
2023/05/28 08:18:55;;;;;;;;;;;;;;;;;;13004579;19;20006;-62
2023/05/28 08:23:13;;;;;;;1.10;0.63;;;;;;;;;;13002500;19;19930;-62
2023/05/28 08:27:35;;;;;;;5.60;0.80;;;;;;;;;;13003292;19;20002;-62
2023/05/28 08:31:54;;;;;;;1.25;0.57;;;;;;;;;;13003119;19;20037;-62
2023/05/28 08:36:11;;;;;;;3.60;0.80;;;;;;;;;;13000927;19;20073;-62
2023/05/28 08:40:31;;;;;;;0.93;0.65;;;;;;;;;;13003201;19;20007;-62
2023/05/28 08:44:48;;;;;;;0.28;0.13;;;;;;;;;;13000756;19;20002;-62
2023/05/28 08:49:10;;;;;;;0.85;0.65;;;;;;;;;;13001060;19;20025;-62
2023/05/28 08:53:38;;;;;;;1.77;0.98;;;;;;;;;;13002219;19;20018;-62
2023/05/28 08:57:56;;;;;;;1.40;0.80;;;;;;;;;;12998902;19;20489;-63
2023/05/28 09:02:15;;;;;;;0.77;0.45;;;;;;;;;;12999633;19;20010;-62
2023/05/28 09:06:38;;;;;;;0.93;0.50;;;;;;;;;;13001087;19;20477;-62
2023/05/28 09:10:57;;;;;;;1.80;0.80;;;;;;;;;;12999575;19;20023;-63
2023/05/28 09:15:21;;;;;;;1.95;0.93;;;;;;;;;;13001217;19;20003;-62
2023/05/28 09:19:39;;;;;;;3.92;0.88;;;;;;;;;;13001516;19;20019;-63
2023/05/28 09:23:58;;;;;;;0.73;0.65;;;;;;;;;;13000874;19;20015;-62
2023/05/28 09:28:17;;;;;;;0.50;0.50;;;;;;;;;;12999099;19;20018;-63
2023/05/28 09:32:35;;;;;;;;;;;;;;;;;;13000881;19;20497;-62
2023/05/28 09:37:04;;;;;;;1.33;0.73;;;;;;;;;;13000224;19;19934;-62
2023/05/28 09:41:27;;;;;;;4.63;0.77;;;;;;;;;;12999264;19;20018;-62
2023/05/28 09:45:45;;;;;;;3.10;1.17;;;;;;;;;;12999267;19;20026;-62
2023/05/28 09:50:04;;;;;;;3.13;0.73;;;;;;;;;;13000250;19;20425;-62
2023/05/28 09:54:24;;;;;;;1.30;0.70;;;;;;;;;;12998301;19;20010;-63
2023/05/28 09:58:46;;;;;;;2.40;0.70;;;;;;;;;;12998055;19;20011;-62
2023/05/28 10:03:30;;;;;;;2.33;0.65;;;;;;;;;;12996970;19;20119;-63
2023/05/28 10:07:53;;;;;;;1.75;0.85;;;;;;;;;;12998532;19;20022;-62
2023/05/28 10:12:18;;;;;;;3.28;0.85;;;;;;;;;;13010913;19;20016;-63
2023/05/28 10:16:37;;;;;;;3.13;1.27;;;;;;;;;;13011034;19;20010;-62
2023/05/28 10:20:58;;;;;;;1.52;0.50;;;;;;;;;;13010687;19;20006;-62
2023/05/28 10:25:16;;;;;;;4.30;0.80;;;;;;;;;;13010015;19;20010;-63
2023/05/28 10:29:48;;;;;;;1.67;0.60;;;;;;;;;;13008907;19;20361;-63
2023/05/28 10:34:17;;;;;;;3.03;0.80;;;;;;;;;;13009333;19;20023;-62
2023/05/28 10:38:45;;;;;;;1.08;0.90;;;;;;;;;;13009714;19;19998;-62
2023/05/28 10:43:03;;;;;;;2.22;0.93;;;;;;;;;;13007283;19;20473;-62
2023/05/28 10:47:31;;;;;;;2.22;1.02;;;;;;;;;;13009526;19;20030;-63
2023/05/28 10:52:02;;;;;;;;;;;;;;;;;;13008174;19;20006;-62
2023/05/28 10:56:20;;;;;;;1.38;0.70;;;;;;;;;;13007833;19;19949;-62
2023/05/28 11:00:41;;;;;;;6.95;1.20;;;;;;;;;;13008370;19;20011;-62
2023/05/28 11:05:01;;;;;;;1.63;0.70;;;;;;;;;;13008640;19;20480;-63
2023/05/28 11:09:23;;;;;;;2.55;1.00;;;;;;;;;;13008271;19;20037;-62
2023/05/28 11:13:47;;;;;;;2.40;1.00;;;;;;;;;;13007615;19;20097;-63
2023/05/28 11:18:07;;;;;;;2.83;0.60;;;;;;;;;;13006846;19;20006;-62
2023/05/28 11:22:35;;;;;;;3.97;1.00;;;;;;;;;;13005783;19;20323;-62
2023/05/28 11:26:54;;;;;;;2.08;1.10;;;;;;;;;;13006768;19;20337;-62
2023/05/28 11:31:12;;;;;;;2.97;0.57;;;;;;;;;;13006132;19;20473;-62
2023/05/28 11:35:32;;;;;;;4.53;1.27;;;;;;;;;;13006681;19;20043;-62
2023/05/28 11:39:53;;;;;;;3.17;1.33;;;;;;;;;;13006511;19;20011;-62
2023/05/28 11:44:21;;;;;;;3.88;0.88;;;;;;;;;;13004789;19;20006;-62
2023/05/28 11:48:41;;;;;;;1.25;0.70;;;;;;;;;;13006698;19;20010;-62
2023/05/28 11:52:59;;;;;;;1.77;0.73;;;;;;;;;;13005847;19;20057;-62
2023/05/28 11:57:28;;;;;;;1.05;0.85;;;;;;;;;;13005625;19;20034;-62
2023/05/28 12:01:47;;;;;;;1.77;0.57;;;;;;;;;;13004250;19;20018;-62
2023/05/28 12:06:04;;;;;;;2.70;0.75;;;;;;;;;;13004787;19;20326;-63
2023/05/28 12:10:26;;;;;;;1.25;0.50;;;;;;;;;;13004149;19;20489;-62
2023/05/28 12:14:47;;;;;;;1.90;0.70;;;;;;;;;;13005003;19;20098;-63
2023/05/28 12:19:04;;;;;;;6.97;0.75;;;;;;;;;;13003482;19;20025;-62
2023/05/28 12:23:22;;;;;;;2.17;1.00;;;;;;;;;;13002976;19;20025;-63
2023/05/28 12:27:40;;;;;;;2.50;0.93;;;;;;;;;;13004466;19;20006;-62
2023/05/28 12:31:59;;;;;;;1.58;0.88;;;;;;;;;;13000960;19;20021;-63
2023/05/28 12:36:19;;;;;;;2.38;0.77;;;;;;;;;;13003670;19;20017;-62
2023/05/28 12:40:37;;;;;;;1.25;0.80;;;;;;;;;;13002858;19;20033;-62
2023/05/28 12:44:55;;;;;;;6.10;0.93;;;;;;;;;;13001505;19;20345;-62
2023/05/28 12:49:13;;;;;;;1.92;0.80;;;;;;;;;;13001446;19;20082;-63
2023/05/28 12:53:31;;;;;;;2.60;0.73;;;;;;;;;;13002422;19;20007;-63
2023/05/28 12:57:49;;;;;;;6.45;0.82;;;;;;;;;;13002022;19;20464;-62
2023/05/28 13:02:07;;;;;;;1.33;0.65;;;;;;;;;;13000524;19;20002;-63
2023/05/28 13:06:25;;;;;;;1.30;0.75;;;;;;;;;;13001866;19;20018;-62
2023/05/28 13:10:44;;;;;;;1.85;0.55;;;;;;;;;;13001285;19;20018;-62
2023/05/28 13:15:05;;;;;;;2.15;1.30;;;;;;;;;;13000416;19;20015;-65
2023/05/28 13:19:24;;;;;;;2.45;1.50;;;;;;;;;;13001222;19;20030;-62
2023/05/28 13:23:43;;;;;;;2.75;0.88;;;;;;;;;;13000991;19;20007;-62
2023/05/28 13:28:01;;;;;;;1.38;0.68;;;;;;;;;;13000294;19;20392;-63
2023/05/28 13:32:20;;;;;;;3.05;0.80;;;;;;;;;;13000194;19;20426;-63
2023/05/28 13:36:39;;;;;;;2.78;0.90;;;;;;;;;;13000020;19;20070;-63
2023/05/28 13:40:58;;;;;;;1.70;0.82;;;;;;;;;;12999298;19;20003;-63
2023/05/28 13:45:16;;;;;;;3.92;0.88;;;;;;;;;;13006575;19;19998;-63
2023/05/28 13:49:34;;;;;;;1.45;0.68;;;;;;;;;;13012175;19;20002;-63
2023/05/28 13:53:52;;;;;;;2.85;0.98;;;;;;;;;;13012001;19;20018;-62
2023/05/28 13:58:10;;;;;;;1.45;1.00;;;;;;;;;;13011216;19;20006;-62
2023/05/28 14:02:28;;;;;;;1.60;0.93;;;;;;;;;;13011286;19;20054;-62
2023/05/28 14:06:46;;;;;;;1.70;1.23;;;;;;;;;;13011534;19;20015;-63
2023/05/28 14:11:05;;;;;;;0.90;0.70;;;;;;;;;;13010516;19;20130;-62
2023/05/28 14:15:23;;;;;;;2.60;1.23;;;;;;;;;;13010779;19;20391;-62
2023/05/28 14:19:41;;;;;;;1.65;0.80;;;;;;;;;;13010419;19;20019;-62
2023/05/28 14:24:02;;;;;;;2.45;0.85;;;;;;;;;;13009205;19;20021;-62
2023/05/28 14:28:19;;;;;;;1.38;0.63;;;;;;;;;;13009997;19;20011;-63
2023/05/28 14:32:38;;;;;;;1.38;0.90;;;;;;;;;;13010176;19;20465;-62
2023/05/28 14:36:59;;;;;;;1.20;0.73;;;;;;;;;;13009777;19;20010;-62
2023/05/28 14:41:16;;;;;;;2.63;0.63;;;;;;;;;;13009404;19;20011;-62
2023/05/28 14:45:35;;;;;;;0.70;0.40;;;;;;;;;;13008705;19;20007;-62
2023/05/28 14:49:54;;;;;;;2.13;0.80;;;;;;;;;;13008913;19;20355;-62
2023/05/28 14:54:12;;;;;;;3.92;0.93;;;;;;;;;;13007645;19;20011;-62
2023/05/28 14:58:31;;;;;;;2.60;0.82;;;;;;;;;;13007632;19;20010;-62
2023/05/28 15:02:49;;;;;;;1.98;0.70;;;;;;;;;;13008156;19;20014;-62
2023/05/28 15:07:08;;;;;;;1.63;0.73;;;;;;;;;;13007545;19;20011;-62
2023/05/28 15:11:25;;;;;;;2.42;0.90;;;;;;;;;;13008128;19;20029;-62
2023/05/28 15:15:45;;;;;;;1.63;0.70;;;;;;;;;;13007443;19;20002;-62
2023/05/28 15:20:04;;;;;;;1.60;0.80;;;;;;;;;;13007392;19;20484;-63
2023/05/28 15:24:23;;;;;;;2.70;0.95;;;;;;;;;;13007604;19;20469;-62
2023/05/28 15:28:40;;;;;;;1.60;0.90;;;;;;;;;;13006773;19;20469;-62
2023/05/28 15:33:00;;;;;;;1.48;0.77;;;;;;;;;;13006949;19;20010;-62
2023/05/28 15:37:20;;;;;;;1.60;0.63;;;;;;;;;;13005042;19;20014;-62
2023/05/28 15:41:45;;;;;;;1.88;0.90;;;;;;;;;;13006687;19;20017;-62
2023/05/28 15:46:03;;;;;;;1.50;0.70;;;;;;;;;;13003503;19;20027;-62
2023/05/28 15:50:21;;;;;;;2.05;0.88;;;;;;;;;;13005891;19;20011;-62
2023/05/28 15:54:39;;;;;;;;;;;;;;;;;;13006200;19;20484;-62
2023/05/28 15:58:56;;;;;;;3.03;1.67;;;;;;;;;;13005357;19;19914;-62
2023/05/28 16:03:16;;;;;;;1.17;0.80;;;;;;;;;;13002771;19;20029;-62
2023/05/28 16:07:34;;;;;;;1.95;0.85;;;;;;;;;;13003160;19;20010;-62
2023/05/28 16:11:56;;;;;;;1.27;0.85;;;;;;;;;;13005091;19;20107;-62
2023/05/28 16:16:13;;;;;;;1.83;1.02;;;;;;;;;;13003914;19;20362;-62
2023/05/28 16:20:33;;;;;;;1.55;0.80;;;;;;;;;;13004065;19;20450;-62
2023/05/28 16:24:51;;;;;;;1.52;0.73;;;;;;;;;;13003768;19;20477;-62
2023/05/28 16:29:09;;;;;;;1.08;0.70;;;;;;;;;;13002977;19;20006;-62
2023/05/28 16:33:27;;;;;;;1.23;0.80;;;;;;;;;;13003603;19;20321;-62
2023/05/28 16:37:46;;;;;;;2.55;1.35;;;;;;;;;;13003646;19;20030;-62
2023/05/28 16:42:06;;;;;;;2.10;0.65;;;;;;;;;;13001570;19;20017;-62
2023/05/28 16:46:27;;;;;;;1.80;0.75;;;;;;;;;;13002493;19;20014;-62
2023/05/28 16:50:47;;;;;;;3.13;0.75;;;;;;;;;;13002480;19;20472;-62
2023/05/28 16:55:05;;;;;;;0.73;0.57;;;;;;;;;;13002524;19;20429;-61
2023/05/28 16:59:23;;;;;;;;;;;;;;;;;;13002539;19;20014;-61
2023/05/28 17:03:41;;;;;;;2.42;0.55;;;;;;;;;;13001029;19;19914;-61
2023/05/28 17:07:58;;;;;;;2.97;0.98;;;;;;;;;;13001782;19;20007;-62
2023/05/28 17:12:16;;;;;;;1.13;0.65;;;;;;;;;;13001295;19;20014;-62
2023/05/28 17:16:34;;;;;;;;;;;;;;;;;;13002069;19;20029;-62
2023/05/28 17:20:52;;;;;;;4.53;1.77;;;;;;;;;;13011385;19;19914;-61
2023/05/28 17:25:11;;;;;;;4.45;1.63;;;;;;;;;;13012135;19;20480;-61
2023/05/28 17:29:29;;;;;;;5.03;1.77;;;;;;;;;;13013986;19;20006;-61
2023/05/28 17:33:48;;;;;;;3.13;1.50;;;;;;;;;;13013362;19;20427;-61
2023/05/28 17:38:07;;;;;;;1.10;0.57;;;;;;;;;;13012545;19;20018;-62
2023/05/28 17:42:25;;;;;;;1.55;1.00;;;;;;;;;;13011874;19;20015;-61
2023/05/28 17:46:45;;;;;;;1.95;0.90;;;;;;;;;;13011690;19;20037;-61
2023/05/28 17:51:03;;;;;;;2.97;1.33;;;;;;;;;;13012011;19;20022;-62
2023/05/28 17:55:22;;;;;;;1.48;0.60;;;;;;;;;;13011960;19;20043;-61
2023/05/28 17:59:42;;;;;;;1.40;0.90;;;;;;;;;;13011856;19;20010;-61
2023/05/28 18:04:01;;;;;;;1.67;1.05;;;;;;;;;;13010010;19;20070;-63
2023/05/28 18:08:19;;;;;;;;;;;;;;;;;;13012242;19;20359;-61
2023/05/28 18:12:37;;;;;;;1.25;1.02;;;;;;;;;;13011710;19;19915;-61
2023/05/28 18:16:58;;;;;;;8.00;2.03;;;;;;;;;;13010845;19;20015;-61
2023/05/28 18:21:18;;;;;;;8.10;4.50;;;;;;;;;;13010674;19;20026;-62
2023/05/28 18:25:40;;;;;;;7.45;3.67;;;;;;;;;;13010278;19;20007;-61
2023/05/28 18:29:58;;;;;;;11.00;4.82;;;;;;;;;;13007646;19;20014;-62
2023/05/28 18:34:17;;;;;;;17.17;8.25;;;;;;;;;;13010023;19;20011;-61
2023/05/28 18:38:35;;;;;;;18.88;8.43;;;;;;;;;;13009828;19;20014;-62
2023/05/28 18:42:54;;;;;;;19.00;7.40;;;;;;;;;;13006190;19;20011;-61
2023/05/28 18:47:13;;;;;;;8.77;3.80;;;;;;;;;;13008672;19;20438;-61
2023/05/28 18:51:33;;;;;;;6.82;3.47;;;;;;;;;;13009832;19;20029;-62
2023/05/28 18:55:50;;;;;;;4.55;2.42;;;;;;;;;;13008816;19;20022;-61
2023/05/28 19:00:09;;;;;;;;;;;;;;;;;;13008483;19;20103;-61
2023/05/28 19:04:27;;;;;;;8.23;3.67;;;;;;;;;;13008209;19;19968;-62
2023/05/28 19:08:47;;;;;;;4.07;1.80;;;;;;;;;;13008490;19;20007;-61
2023/05/28 19:13:05;;;;;;;11.05;1.98;;;;;;;;;;13007561;19;20007;-61
2023/05/28 19:17:23;;;;;;;4.63;1.70;;;;;;;;;;13007885;19;20081;-62
2023/05/28 19:21:43;;;;;;;;;;;;;;;;;;13007941;19;20006;-61
2023/05/28 19:26:01;;;;;;;3.22;1.50;;;;;;;;;;13007176;19;19918;-61
2023/05/28 19:30:20;;;;;;;2.22;1.45;;;;;;;;;;13007672;19;20014;-62
2023/05/28 19:34:38;;;;;;;6.03;1.58;;;;;;;;;;13006814;19;20022;-61
2023/05/28 19:38:57;;;;;;;3.75;1.77;;;;;;;;;;13006641;19;20358;-61
2023/05/28 19:43:18;;;;;;;3.40;1.38;;;;;;;;;;13003993;19;20375;-61
2023/05/28 19:47:37;;;;;;;7.45;3.35;;;;;;;;;;13006573;19;20007;-61
2023/05/28 19:51:55;;;;;;;10.93;3.15;;;;;;;;;;13005916;19;20135;-61
2023/05/28 19:56:13;;;;;;;3.03;1.88;;;;;;;;;;13004988;19;20013;-61
2023/05/28 20:00:32;;;;;;;4.05;1.95;;;;;;;;;;13005615;19;20028;-60
2023/05/28 20:04:58;;;;;;;5.93;1.70;;;;;;;;;;13005799;19;20033;-61
2023/05/28 20:09:17;;;;;;;2.83;1.52;;;;;;;;;;13004625;19;20022;-60
2023/05/28 20:13:36;;;;;;;3.08;1.70;;;;;;;;;;13004718;19;20031;-60
2023/05/28 20:17:55;;;;;;;4.57;2.15;;;;;;;;;;13004249;19;20007;-61
2023/05/28 20:22:13;;;;;;;3.85;1.90;;;;;;;;;;13004096;19;20093;-60
2023/05/28 20:26:31;;;;;;;;;;;;;;;;;;13004898;19;20011;-60
2023/05/28 20:30:49;;;;;;;3.78;1.60;;;;;;;;;;13003877;19;19929;-60
2023/05/28 20:35:09;;;;;;;4.82;2.08;;;;;;;;;;13002941;19;20393;-61
2023/05/28 20:39:28;;;;;;;3.67;2.13;;;;;;;;;;13004222;19;20353;-60
2023/05/28 20:43:46;;;;;;;3.75;2.05;;;;;;;;;;13002430;19;20426;-61
2023/05/28 20:48:06;;;;;;;5.10;2.15;;;;;;;;;;13002365;19;20032;-62
2023/05/28 20:52:26;;;;;;;5.95;2.03;;;;;;;;;;13001102;19;20118;-60
2023/05/28 20:56:47;;;;;;;5.43;2.67;;;;;;;;;;13002749;19;20007;-61
2023/05/28 21:01:04;;;;;;;5.95;1.88;;;;;;;;;;12999827;19;20605;-61
2023/05/28 21:05:23;;;;;;;4.63;2.08;;;;;;;;;;13002609;19;20018;-61
2023/05/28 21:09:41;;;;;;;5.78;2.85;;;;;;;;;;13002287;19;20013;-61
2023/05/28 21:14:02;;;;;;;6.82;3.33;;;;;;;;;;13000985;19;20010;-61
2023/05/28 21:18:20;;;;;;;7.32;2.90;;;;;;;;;;13001702;19;20481;-61
2023/05/28 21:22:41;;;;;;;7.22;2.75;;;;;;;;;;13000979;19;20007;-61
2023/05/28 21:26:58;;;;;;;9.73;3.85;;;;;;;;;;13000962;19;20002;-61
2023/05/28 21:31:17;;;;;;;10.70;3.40;;;;;;;;;;13000994;19;20465;-61
2023/05/28 21:35:36;;;;;;;9.43;3.15;;;;;;;;;;13000977;19;20349;-60
2023/05/28 21:39:53;;;;;;;9.27;3.58;;;;;;;;;;13001056;19;20468;-61
2023/05/28 21:44:11;;;;;;;9.63;3.92;;;;;;;;;;12998429;19;20010;-61
2023/05/28 21:48:31;;;;;;;8.55;3.35;;;;;;;;;;13000592;19;20007;-61
2023/05/28 21:52:52;;;;;;;6.60;3.15;;;;;;;;;;12999755;19;20488;-61
2023/05/28 21:57:10;;;;;;;6.63;2.58;;;;;;;;;;12999291;19;20021;-61
2023/05/28 22:01:28;;;;;;;8.15;2.75;;;;;;;;;;12995332;19;20020;-60
2023/05/28 22:05:47;;;;;;;9.65;3.22;;;;;;;;;;13005021;19;20473;-60
2023/05/28 22:10:06;;;;;;;;;;;;;;;;;;13011621;19;20469;-61
2023/05/28 22:14:24;;;;;;;8.48;2.70;;;;;;;;;;13011766;19;20261;-60
2023/05/28 22:18:43;;;;;;;5.05;2.13;;;;;;;;;;13011416;19;20469;-61
2023/05/28 22:23:01;;;;;;;6.40;2.53;;;;;;;;;;13009362;19;20021;-61
2023/05/28 22:27:19;;;;;;;7.25;2.63;;;;;;;;;;13010129;19;20014;-61
2023/05/28 22:31:37;;;;;;;5.70;2.15;;;;;;;;;;13010052;19;20014;-61
2023/05/28 22:35:54;;;;;;;4.15;2.20;;;;;;;;;;13010164;19;20011;-61
2023/05/28 22:40:14;;;;;;;11.60;2.55;;;;;;;;;;13008839;19;20015;-61
2023/05/28 22:44:32;;;;;;;4.25;2.13;;;;;;;;;;13007892;19;20006;-61
2023/05/28 22:48:56;;;;;;;4.28;1.90;;;;;;;;;;13009595;19;20018;-61
2023/05/28 22:53:14;;;;;;;4.55;2.00;;;;;;;;;;13008354;19;20034;-60
2023/05/28 22:57:31;;;;;;;4.15;2.10;;;;;;;;;;13009255;19;20003;-61
2023/05/28 23:01:51;;;;;;;4.78;2.20;;;;;;;;;;13008665;19;20018;-61
2023/05/28 23:06:09;;;;;;;3.13;1.80;;;;;;;;;;13006643;19;20017;-61
2023/05/28 23:10:26;;;;;;;3.85;1.95;;;;;;;;;;13008985;19;20019;-61
2023/05/28 23:14:46;;;;;;;2.65;1.45;;;;;;;;;;13007619;19;20010;-60
2023/05/28 23:19:04;;;;;;;4.70;2.42;;;;;;;;;;13005435;19;20037;-61
2023/05/28 23:23:23;;;;;;;2.33;1.58;;;;;;;;;;13007558;19;20022;-61
2023/05/28 23:27:41;;;;;;;2.75;1.52;;;;;;;;;;13007435;19;20006;-61
2023/05/28 23:31:59;;;;;;;3.22;2.10;;;;;;;;;;13006999;19;20010;-62
2023/05/28 23:36:18;;;;;;;2.55;1.70;;;;;;;;;;13006957;19;20029;-61
2023/05/28 23:40:37;;;;;;;3.00;1.55;;;;;;;;;;13006015;19;20018;-61
2023/05/28 23:44:56;;;;;;;3.30;1.80;;;;;;;;;;13005572;19;20033;-61
2023/05/28 23:49:17;;;;;;;5.60;1.45;;;;;;;;;;13005350;19;20011;-61
2023/05/28 23:53:35;;;;;;;2.00;1.40;;;;;;;;;;13006359;19;20449;-61
2023/05/28 23:57:54;;;;;;;6.60;1.48;;;;;;;;;;13006088;19;20034;-62
